Time,TemperatureF,DewpointF,PressureIn,WindDirection,WindDirectionDegrees,WindSpeedMPH,WindSpeedGustMPH,Humidity,HourlyPrecipIn,Conditions,Clouds,dailyrainin,SoftwareType,DateUTC
2013-02-24 00:00:00,26.1,23.6,30.05,SSE,164,0.0,0.0,90,0.00,,---,0.00,VWS V13.01,2013-02-24 05:00:00,
2013-02-24 00:30:00,26.1,23.8,30.03,South,170,0.0,0.0,91,0.00,,---,0.00,VWS V13.01,2013-02-24 05:30:00,
2013-02-24 01:00:00,26.0,23.7,30.06,South,170,0.0,0.0,91,0.00,,---,0.00,VWS V13.01,2013-02-24 06:00:00,
2013-02-24 01:30:00,26.5,24.2,30.08,South,171,0.0,0.0,91,0.00,,---,0.00,VWS V13.01,2013-02-24 06:30:00,
2013-02-24 02:00:00,26.3,24.3,30.08,South,171,0.0,0.0,92,0.00,,---,0.00,VWS V13.01,2013-02-24 07:00:00,
2013-02-24 02:30:00,26.8,24.8,30.03,SSE,165,0.0,0.0,92,0.00,,---,0.00,VWS V13.01,2013-02-24 07:30:00,
2013-02-24 03:00:00,26.8,24.5,30.04,SSE,157,0.0,0.0,91,0.00,,---,0.00,VWS V13.01,2013-02-24 08:00:00,
2013-02-24 03:30:00,26.8,24.5,30.09,SSE,166,0.0,0.0,91,0.00,,---,0.00,VWS V13.01,2013-02-24 08:30:00,
2013-02-24 04:00:00,26.9,24.1,30.05,WSW,249,0.0,0.0,89,0.00,,---,0.00,VWS V13.01,2013-02-24 09:00:00,
2013-02-24 04:30:00,27.4,24.6,30.05,SW,220,0.0,0.0,89,0.00,,---,0.00,VWS V13.01,2013-02-24 09:30:00,
2013-02-24 05:00:00,27.9,24.8,30.04,SSW,212,0.0,0.0,88,0.00,,---,0.00,VWS V13.01,2013-02-24 10:00:00,
2013-02-24 05:30:00,28.1,25.0,30.08,South,190,0.0,0.0,88,0.00,,---,0.00,VWS V13.01,2013-02-24 10:30:00,
2013-02-24 06:00:00,28.1,25.0,30.05,South,191,0.0,1.0,88,0.00,,---,0.00,VWS V13.01,2013-02-24 11:00:00,
2013-02-24 06:30:00,28.5,25.4,30.13,South,177,0.0,0.0,88,0.00,,---,0.00,VWS V13.01,2013-02-24 11:30:00,
2013-02-24 07:00:00,29.0,25.9,30.11,WSW,243,0.0,0.0,88,0.00,,---,0.00,VWS V13.01,2013-02-24 12:00:00,
2013-02-24 07:30:00,29.5,26.4,30.13,WSW,244,0.0,0.0,88,0.00,,---,0.00,VWS V13.01,2013-02-24 12:30:00,
2013-02-24 08:00:00,30.0,26.9,30.14,WSW,244,0.0,0.0,88,0.00,,---,0.00,VWS V13.01,2013-02-24 13:00:00,
2013-02-24 08:30:00,31.7,28.0,30.15,WSW,245,0.0,0.0,86,0.00,,---,0.00,VWS V13.01,2013-02-24 13:30:00,
2013-02-24 09:00:00,33.5,28.9,30.18,WSW,245,0.0,0.0,83,0.00,,---,0.00,VWS V13.01,2013-02-24 14:00:00,
2013-02-24 09:30:00,34.8,29.3,30.20,WSW,246,0.0,0.0,80,0.00,,---,0.00,VWS V13.01,2013-02-24 14:30:00,
2013-02-24 10:00:00,36.9,30.4,30.19,WNW,299,0.0,0.0,77,0.00,,---,0.00,VWS V13.01,2013-02-24 15:00:00,
2013-02-24 10:30:00,37.4,30.2,30.21,SW,215,0.0,0.0,75,0.00,,---,0.00,VWS V13.01,2013-02-24 15:30:00,
2013-02-24 11:00:00,38.4,30.2,30.20,WNW,285,0.0,0.0,72,0.00,,---,0.00,VWS V13.01,2013-02-24 16:00:00,
2013-02-24 11:30:00,42.1,31.2,30.18,WNW,301,0.0,0.0,65,0.00,,---,0.00,VWS V13.01,2013-02-24 16:30:00,
2013-02-24 12:00:00,43.0,30.9,30.21,NNW,329,0.0,0.0,62,0.00,,---,0.00,VWS V13.01,2013-02-24 17:00:00,
2013-02-24 12:30:00,38.5,28.5,30.23,North,352,0.0,0.0,67,0.00,,---,0.00,VWS V13.01,2013-02-24 17:30:00,
2013-02-24 13:00:00,38.4,29.1,30.29,NNW,335,0.0,0.0,69,0.00,,---,0.00,VWS V13.01,2013-02-24 18:00:00,
2013-02-24 13:30:00,39.7,28.9,30.29,North,350,0.0,0.0,65,0.00,,---,0.00,VWS V13.01,2013-02-24 18:30:00,
2013-02-24 14:00:00,40.0,28.0,30.28,NW,325,0.0,0.0,62,0.00,,---,0.00,VWS V13.01,2013-02-24 19:00:00,
2013-02-24 14:30:00,38.9,28.9,30.23,West,266,0.0,0.0,67,0.00,,---,0.00,VWS V13.01,2013-02-24 19:30:00,
2013-02-24 15:00:00,39.3,28.5,30.23,WNW,294,0.0,0.0,65,0.00,,---,0.00,VWS V13.01,2013-02-24 20:00:00,
2013-02-24 15:30:00,39.8,28.6,30.23,NW,314,0.0,0.0,64,0.00,,---,0.00,VWS V13.01,2013-02-24 20:30:00,
2013-02-24 15:58:00,39.6,28.4,30.21,South,180,0.0,0.0,64,0.00,,---,0.00,VWS V13.01,2013-02-24 20:58:00,
2013-02-24 16:23:00,39.0,29.0,30.26,South,180,0.0,0.0,67,0.00,,---,0.00,VWS V13.01,2013-02-24 21:23:00,